Aviation Digital Data Service (ADDS)

Output produced by METARs form (0031 UTC 17 July 2019)
found at http://www.aviationweather.gov/metar/data/
 
MBGT 162300Z 1700/1724 12014KT 9999 SCT025
       
MBPV 162300Z 1700/1724 12014KT 9999 SCT025